createdAt,value
2022-10-13T04:02:31.580Z,40.92
2022-10-13T04:05:00.316Z,38.60
2022-10-13T04:07:27.595Z,42.90
2022-10-13T04:09:55.404Z,50.38
2022-10-13T04:12:23.465Z,46.83
2022-10-13T04:14:51.044Z,50.72
2022-10-13T04:17:18.498Z,45.15
2022-10-13T04:19:45.829Z,42.28
2022-10-13T04:22:13.048Z,39.00
2022-10-13T04:24:41.568Z,57.67
2022-10-13T04:27:10.058Z,53.28
2022-10-13T04:29:38.303Z,55.53
2022-10-13T04:32:05.540Z,41.10
2022-10-13T04:34:32.775Z,54.67
2022-10-13T04:37:00.531Z,48.92
2022-10-13T04:39:27.780Z,47.47
2022-10-13T04:41:56.562Z,40.35
2022-10-13T04:44:23.798Z,42.47
2022-10-13T04:46:51.321Z,42.72
2022-10-13T04:49:18.613Z,47.22
2022-10-13T04:51:46.232Z,44.08
2022-10-13T04:54:14.325Z,49.40
2022-10-13T04:56:44.553Z,58.13
2022-10-13T04:59:12.141Z,47.00
2022-10-13T05:01:40.247Z,43.30
2022-10-13T05:07:05.195Z,50.38
2022-10-13T05:09:29.042Z,54.22
2022-10-13T05:11:57.535Z,47.80
2022-10-13T05:14:24.907Z,43.40
2022-10-13T05:16:53.364Z,43.60
2022-10-13T05:19:20.738Z,49.80
2022-10-13T05:21:50.473Z,49.65
2022-10-13T05:24:17.926Z,40.72
2022-10-13T05:26:47.749Z,38.40
2022-10-13T05:29:15.440Z,37.15
2022-10-13T05:31:43.304Z,45.88
2022-10-13T05:34:11.260Z,36.20
2022-10-13T05:36:38.918Z,54.70
2022-10-13T05:39:09.808Z,43.90
2022-10-13T05:41:39.148Z,45.03
2022-10-13T05:44:10.495Z,41.08
2022-10-13T05:46:42.792Z,37.58
2022-10-13T05:49:11.213Z,34.47
2022-10-13T05:51:43.431Z,37.38
2022-10-13T05:54:21.418Z,35.03
2022-10-13T05:56:57.411Z,42.72
2022-10-13T05:59:29.909Z,28.85
2022-10-13T06:01:57.351Z,21.08
2022-10-13T06:04:39.864Z,23.52
2022-10-13T06:07:09.984Z,36.50
2022-10-13T06:09:40.518Z,28.80
2022-10-13T06:12:09.213Z,36.22
2022-10-13T06:14:36.594Z,47.08
2022-10-13T06:17:07.756Z,34.03
2022-10-13T06:19:35.469Z,41.05
2022-10-13T06:22:09.136Z,134.98
2022-10-13T06:24:36.804Z,39.63
2022-10-13T06:27:06.645Z,60.83
2022-10-13T06:29:34.332Z,71.35
2022-10-13T06:32:01.747Z,43.40
2022-10-13T06:34:29.426Z,39.72
2022-10-13T06:36:56.655Z,80.70
2022-10-13T06:39:24.013Z,58.45
2022-10-13T06:41:52.540Z,57.95
2022-10-13T06:44:19.816Z,40.60
2022-10-13T06:46:47.091Z,29.20
2022-10-13T06:49:14.492Z,32.10
2022-10-13T06:51:41.929Z,41.10
2022-10-13T06:54:10.239Z,35.58
2022-10-13T06:56:37.503Z,41.92
2022-10-13T06:59:10.741Z,41.30
2022-10-13T07:01:41.527Z,33.90
2022-10-13T07:04:14.105Z,43.72
2022-10-13T07:06:41.592Z,42.28
2022-10-13T07:09:09.436Z,34.13
2022-10-13T07:11:37.064Z,45.50
2022-10-13T07:14:04.328Z,49.13
2022-10-13T07:16:32.562Z,53.35
2022-10-13T07:19:00.277Z,44.97
2022-10-13T07:21:27.774Z,44.80
2022-10-13T07:23:55.125Z,44.35
2022-10-13T07:26:22.705Z,46.63
2022-10-13T07:28:50.889Z,51.60
2022-10-13T07:31:20.430Z,49.50
2022-10-13T07:33:49.852Z,61.22
2022-10-13T07:36:17.984Z,56.00
2022-10-13T07:38:46.475Z,47.28
2022-10-13T07:41:14.641Z,50.55
2022-10-13T07:43:42.477Z,49.00
2022-10-13T07:46:11.924Z,47.90
2022-10-13T07:48:40.276Z,55.88
2022-10-13T07:51:10.207Z,55.20
2022-10-13T07:53:38.071Z,53.58
2022-10-13T07:56:07.759Z,57.80
2022-10-13T07:58:42.139Z,48.90
2022-10-13T08:01:10.140Z,61.97
2022-10-13T08:03:45.560Z,51.40
2022-10-13T08:06:19.744Z,56.60
2022-10-13T08:08:48.452Z,60.33
2022-10-13T08:11:18.221Z,68.40
2022-10-13T08:13:50.384Z,63.00
2022-10-13T08:16:24.215Z,76.43
2022-10-13T08:18:51.936Z,62.83
2022-10-13T08:24:13.850Z,59.78
2022-10-13T08:26:42.684Z,60.60
2022-10-13T08:29:25.937Z,62.42
2022-10-13T08:31:53.994Z,49.53
2022-10-13T08:34:25.912Z,64.55
2022-10-13T08:39:24.266Z,53.30
2022-10-13T08:41:53.510Z,60.13
2022-10-13T08:45:15.763Z,61.20
2022-10-13T08:47:41.548Z,49.57
2022-10-13T08:50:16.129Z,61.75
2022-10-13T08:52:52.008Z,62.70
2022-10-13T08:55:35.081Z,60.92
2022-10-13T08:58:09.732Z,61.53
2022-10-13T09:00:37.375Z,57.17
2022-10-13T09:03:26.492Z,56.53
2022-10-13T09:06:15.180Z,55.85
2022-10-13T09:08:54.825Z,63.05
2022-10-13T09:11:22.629Z,53.25
2022-10-13T09:13:54.659Z,61.60
2022-10-13T09:16:44.861Z,63.15
2022-10-13T09:19:29.976Z,55.78
2022-10-13T09:22:13.392Z,57.55
2022-10-13T09:24:40.852Z,64.20
2022-10-13T09:27:19.017Z,64.68
2022-10-13T09:29:46.536Z,57.28
2022-10-13T09:32:18.996Z,54.95
2022-10-13T09:34:47.532Z,63.05
2022-10-13T09:37:25.946Z,60.35
2022-10-13T09:40:19.588Z,61.70
2022-10-13T09:42:53.348Z,56.97
2022-10-13T09:45:23.663Z,57.97
2022-10-13T09:48:18.026Z,67.60
2022-10-13T09:50:50.431Z,51.40
2022-10-13T09:53:32.049Z,62.00
2022-10-13T09:56:09.577Z,58.85
2022-10-13T09:58:47.193Z,54.17
2022-10-13T10:01:32.446Z,50.85
2022-10-13T10:04:13.010Z,60.60
2022-10-13T10:06:41.517Z,52.10
2022-10-13T10:09:35.981Z,47.35
2022-10-13T10:12:06.095Z,62.65
2022-10-13T10:14:38.327Z,51.85
2022-10-13T10:17:15.359Z,54.78
2022-10-13T10:20:04.698Z,64.93
2022-10-13T10:22:44.624Z,62.67
2022-10-13T10:25:25.428Z,68.60
2022-10-13T10:28:13.797Z,62.67
2022-10-13T10:30:48.819Z,58.67
2022-10-13T10:33:26.840Z,57.92
2022-10-13T10:36:19.334Z,50.40
2022-10-13T10:39:01.557Z,58.70
2022-10-13T10:44:21.569Z,49.60
2022-10-13T10:46:50.284Z,47.30
2022-10-13T10:49:26.028Z,46.03
2022-10-13T10:51:54.424Z,46.80
2022-10-13T10:54:34.244Z,38.10
2022-10-13T10:57:08.648Z,45.25
2022-10-13T10:59:59.343Z,40.58
2022-10-13T11:02:48.385Z,49.05
2022-10-13T11:05:16.716Z,46.20
2022-10-13T11:07:43.968Z,48.55
2022-10-13T11:10:16.317Z,40.47
2022-10-13T11:12:52.715Z,41.58
2022-10-13T11:15:20.421Z,40.30
2022-10-13T11:17:47.813Z,52.88
2022-10-13T11:20:18.241Z,38.05
2022-10-13T11:22:57.660Z,46.92
2022-10-13T11:26:18.220Z,41.80
2022-10-13T11:28:47.083Z,41.40
2022-10-13T11:31:15.835Z,34.17
2022-10-13T11:33:44.322Z,43.30
2022-10-13T11:36:55.126Z,30.35
2022-10-13T11:39:27.744Z,39.88
2022-10-13T11:42:13.428Z,33.97
2022-10-13T11:45:02.432Z,36.58
2022-10-13T11:47:42.317Z,40.65
2022-10-13T11:50:42.388Z,41.17
2022-10-13T11:53:24.294Z,58.20
2022-10-13T11:55:58.292Z,47.17
2022-10-13T11:58:30.830Z,47.42
2022-10-13T12:01:02.416Z,45.30
2022-10-13T12:03:32.492Z,42.70
2022-10-13T12:06:07.606Z,45.13
2022-10-13T12:08:36.451Z,46.28
2022-10-13T12:11:07.593Z,42.60
2022-10-13T12:13:36.080Z,46.08
2022-10-13T12:16:06.669Z,39.35
2022-10-13T12:18:38.195Z,39.70
2022-10-13T12:23:37.063Z,39.17
2022-10-13T12:26:04.654Z,42.70
2022-10-13T12:28:50.853Z,35.65
2022-10-13T12:31:23.058Z,39.78
2022-10-13T12:34:01.608Z,44.08
2022-10-13T12:36:31.933Z,41.60
2022-10-13T12:39:06.315Z,40.63
2022-10-13T12:41:40.592Z,48.10
2022-10-13T12:44:17.901Z,37.75
2022-10-13T12:46:52.321Z,40.15
2022-10-13T12:49:22.511Z,34.13
2022-10-13T12:52:20.941Z,35.53
2022-10-13T12:54:55.856Z,39.03
2022-10-13T12:57:38.656Z,38.45
2022-10-13T13:00:18.803Z,46.63
2022-10-13T13:02:54.266Z,33.45
2022-10-13T13:05:31.398Z,34.42
2022-10-13T13:08:04.369Z,45.30
2022-10-13T13:10:31.690Z,41.03
2022-10-13T13:13:14.312Z,34.88
2022-10-13T13:15:42.212Z,41.85
2022-10-13T13:18:36.544Z,39.67
2022-10-13T13:21:06.606Z,37.13
2022-10-13T13:23:35.714Z,36.38
2022-10-13T13:26:12.055Z,41.55
2022-10-13T13:28:49.992Z,49.90
2022-10-13T13:31:19.864Z,43.03
2022-10-13T13:33:47.613Z,37.15
2022-10-13T13:36:23.291Z,32.72
2022-10-13T13:38:53.593Z,34.25
2022-10-13T13:41:21.213Z,42.47
2022-10-13T13:43:49.627Z,41.42
2022-10-13T13:46:20.711Z,41.35
2022-10-13T13:48:48.613Z,37.40
2022-10-13T13:51:16.915Z,37.47
2022-10-13T13:53:46.991Z,36.25
2022-10-13T13:56:19.844Z,35.75
2022-10-13T14:01:16.008Z,44.83
2022-10-13T14:03:43.485Z,38.88
2022-10-13T14:06:20.102Z,43.10
2022-10-13T14:08:47.786Z,43.88
2022-10-13T14:11:16.417Z,45.08
2022-10-13T14:13:44.303Z,48.95
2022-10-13T14:16:18.053Z,55.67
2022-10-13T14:18:45.705Z,46.05
2022-10-13T14:21:13.124Z,42.03
2022-10-13T14:23:45.555Z,45.60
2022-10-13T14:26:14.475Z,54.17
2022-10-13T14:28:42.897Z,40.25
2022-10-13T14:31:11.619Z,48.50
2022-10-13T14:33:41.577Z,53.80
2022-10-13T14:36:09.947Z,55.95
2022-10-13T14:38:37.559Z,52.08
2022-10-13T14:41:06.230Z,56.08
2022-10-13T14:43:33.672Z,49.90
2022-10-13T14:46:03.161Z,46.38
2022-10-13T14:48:34.918Z,45.63
2022-10-13T14:51:06.945Z,47.88
2022-10-13T14:53:39.967Z,48.80
2022-10-13T14:56:19.178Z,40.85
2022-10-13T14:58:52.129Z,48.28
2022-10-13T15:01:20.576Z,43.72
2022-10-13T15:03:49.139Z,49.45
2022-10-13T15:06:20.074Z,40.45
2022-10-13T15:08:47.725Z,59.58
2022-10-13T15:11:16.886Z,46.92
2022-10-13T15:13:44.431Z,52.58
2022-10-13T15:16:26.495Z,53.10
2022-10-13T15:18:54.409Z,52.17
2022-10-13T15:21:22.463Z,52.92
2022-10-13T15:23:49.846Z,40.83
2022-10-13T15:26:18.738Z,49.47
2022-10-13T15:28:49.418Z,51.63
2022-10-13T15:31:19.034Z,50.80
2022-10-13T15:33:48.067Z,48.08
2022-10-13T15:36:16.463Z,42.15
2022-10-13T15:38:44.217Z,47.30
2022-10-13T15:41:12.599Z,48.30
2022-10-13T15:43:43.705Z,43.05
2022-10-13T15:46:20.825Z,46.38
2022-10-13T15:48:50.155Z,51.83
2022-10-13T15:51:19.766Z,43.30
2022-10-13T15:53:48.717Z,48.00
2022-10-13T15:56:16.542Z,62.10
2022-10-13T15:58:43.937Z,56.20
2022-10-13T16:01:13.391Z,51.55
2022-10-13T16:03:41.847Z,58.80
2022-10-13T16:06:11.559Z,53.70
2022-10-13T16:08:39.986Z,56.03
2022-10-13T16:11:08.967Z,60.72
2022-10-13T16:13:36.490Z,55.22
2022-10-13T16:16:04.112Z,54.75
2022-10-13T16:18:33.724Z,48.88
2022-10-13T16:21:19.040Z,49.50
2022-10-13T16:23:47.842Z,56.38
2022-10-13T16:26:17.308Z,47.97
2022-10-13T16:28:46.478Z,50.90
2022-10-13T16:31:15.763Z,57.72
2022-10-13T16:33:44.725Z,50.10
2022-10-13T16:36:17.979Z,56.88
2022-10-13T16:38:47.710Z,55.97
2022-10-13T16:41:17.129Z,55.83
2022-10-13T16:43:45.681Z,63.55
2022-10-13T16:46:16.145Z,67.13
2022-10-13T16:48:45.391Z,58.67
2022-10-13T16:51:15.962Z,61.78
2022-10-13T16:53:47.109Z,59.58
2022-10-13T16:56:15.260Z,70.30
2022-10-13T16:58:45.032Z,64.63
2022-10-13T17:01:13.468Z,54.22
2022-10-13T17:03:43.873Z,58.38
2022-10-13T17:06:13.873Z,64.10
2022-10-13T17:08:43.050Z,59.78
2022-10-13T17:11:17.209Z,57.28
2022-10-13T17:13:44.724Z,59.85
2022-10-13T17:16:12.067Z,51.60
2022-10-13T17:18:44.204Z,74.78
2022-10-13T17:21:17.332Z,68.65
2022-10-13T17:23:48.575Z,70.90
2022-10-13T17:28:44.772Z,55.83
2022-10-13T17:31:16.224Z,58.15
2022-10-13T17:33:45.172Z,55.63
2022-10-13T17:36:27.406Z,59.40
2022-10-13T17:38:56.328Z,62.58
2022-10-13T17:41:24.248Z,68.25
2022-10-13T17:43:52.606Z,62.45
2022-10-13T17:46:40.600Z,65.47
2022-10-13T17:49:11.300Z,62.92
2022-10-13T17:51:42.687Z,62.40
2022-10-13T17:54:15.549Z,72.75
2022-10-13T17:56:45.211Z,60.78
2022-10-13T17:59:14.227Z,70.47
2022-10-13T18:01:42.249Z,59.70
2022-10-13T18:04:12.787Z,74.25
2022-10-13T18:06:43.712Z,64.88
2022-10-13T18:09:14.035Z,63.30
2022-10-13T18:11:47.083Z,63.25
2022-10-13T18:14:18.840Z,75.82
2022-10-13T18:16:51.057Z,76.30
2022-10-13T18:19:21.519Z,56.97
2022-10-13T18:21:49.750Z,73.82
2022-10-13T18:24:17.138Z,83.78
2022-10-13T18:26:44.720Z,77.63
2022-10-13T18:29:13.282Z,80.05
2022-10-13T18:31:41.707Z,68.90
2022-10-13T18:34:13.670Z,78.18
2022-10-13T18:36:47.272Z,80.07
2022-10-13T18:39:18.769Z,70.10
2022-10-13T18:41:50.084Z,67.53
2022-10-13T18:44:17.956Z,71.47
2022-10-13T18:46:48.280Z,76.93
2022-10-13T18:49:18.120Z,68.97
2022-10-13T18:51:45.425Z,59.45
2022-10-13T18:54:13.158Z,60.80
2022-10-13T18:56:40.522Z,64.47
2022-10-13T18:59:10.106Z,89.65
2022-10-13T19:01:38.345Z,63.53
2022-10-13T19:04:05.857Z,66.70
2022-10-13T19:06:33.242Z,67.88
2022-10-13T19:09:08.950Z,75.10
2022-10-13T19:11:37.086Z,73.95
2022-10-13T19:14:07.280Z,81.95
2022-10-13T19:16:40.588Z,88.72
2022-10-13T19:19:09.295Z,80.22
2022-10-13T19:21:37.707Z,71.13
2022-10-13T19:24:06.459Z,86.43
2022-10-13T19:26:36.295Z,76.43
2022-10-13T19:29:09.781Z,86.75
2022-10-13T19:31:38.710Z,88.03
2022-10-13T19:34:10.795Z,77.50
2022-10-13T19:36:44.188Z,82.05
2022-10-13T19:39:14.717Z,72.88
2022-10-13T19:41:44.141Z,79.32
2022-10-13T19:44:11.789Z,80.68
2022-10-13T19:46:43.974Z,83.90
2022-10-13T19:49:13.445Z,76.18
2022-10-13T19:51:46.784Z,73.93
2022-10-13T19:54:14.486Z,73.82
2022-10-13T19:56:47.242Z,78.45
2022-10-13T19:59:14.967Z,75.93
2022-10-13T20:01:43.101Z,69.55
2022-10-13T20:04:15.942Z,70.90
2022-10-13T20:06:48.839Z,70.05
2022-10-13T20:09:17.776Z,70.47
2022-10-13T20:11:47.249Z,65.40
2022-10-13T20:14:15.724Z,69.45
2022-10-13T20:16:43.165Z,64.88
2022-10-13T20:19:13.879Z,63.53
2022-10-13T20:24:12.984Z,62.60
2022-10-13T20:26:40.999Z,66.50
2022-10-13T20:29:08.377Z,68.90
2022-10-13T20:31:36.745Z,71.07
2022-10-13T20:34:04.072Z,62.83
2022-10-13T20:36:36.029Z,75.10
2022-10-13T20:39:07.831Z,79.90
2022-10-13T20:41:35.375Z,68.30
2022-10-13T20:44:02.908Z,73.80
2022-10-13T20:46:34.173Z,71.45
2022-10-13T20:49:17.365Z,70.93
2022-10-13T20:51:45.287Z,69.88
2022-10-13T20:54:14.156Z,71.85
2022-10-13T20:56:41.977Z,72.63
2022-10-13T20:59:11.897Z,63.25
2022-10-13T21:01:39.136Z,72.38
2022-10-13T21:04:06.964Z,70.10
2022-10-13T21:06:34.784Z,59.95
2022-10-13T21:09:04.294Z,67.40
2022-10-13T21:11:32.092Z,68.18
2022-10-13T21:13:59.835Z,68.07
2022-10-13T21:16:28.885Z,64.72
2022-10-13T21:18:57.243Z,65.65
2022-10-13T21:21:27.230Z,62.17
2022-10-13T21:23:57.199Z,60.95
2022-10-13T21:26:26.955Z,61.67
2022-10-13T21:28:54.906Z,59.80
2022-10-13T21:31:23.032Z,64.70
2022-10-13T21:33:51.343Z,68.15
2022-10-13T21:36:25.108Z,65.60
2022-10-13T21:38:58.765Z,63.72
2022-10-13T21:41:27.007Z,71.13
2022-10-13T21:43:55.095Z,96.63
2022-10-13T21:46:25.860Z,67.13
2022-10-13T21:48:55.011Z,68.95
2022-10-13T21:51:29.457Z,71.95
2022-10-13T21:53:59.288Z,69.95
